Terminal Aerodrome Forecast
Issued by NWS

Home | Current Version | Previous Version | Graphics & Text | Print | Product List | Glossary Off
Versions: 1 2 3 4 5 6 7 8 9 10 11 12 13 14 15 16 17 18 19 20 21 22 23 24 25 26 27 28 29 30 31 32 33 34 35 36 37 38 39 40

000
FTUS43 KDDC 040520
TAFGCK
TAF
KGCK 040520Z 0406/0506 VRB06KT P6SM OVC100
      TEMPO 0406/0409 20016G24KT P6SM -SHRA OVC080
     FM041500 14008KT P6SM SCT060
     FM042200 VRB20G30KT P6SM VCTS BKN070CB=

USA.gov is the U.S. government's official web portal to all federal, state and local government web resources and services.